Retsil, Washington
Current Conditions -  °F | °C
As of 8:55 PM on Sunday 21 Dec 2014 (Local Time) from KPWT Reporting Station
Broken Clouds Broken Clouds  
Wind Chill: 43°   Ceiling: 11000
Heat Index: 48°   Visibility: 10mi
Dew Point: 46°   Wind: 12mph
Humidity: 93%   Direction: 230°SW
Pressure: 30.11"   Gusts: NA
Location:  47.53°N, 122.59°W
Report Text: KPWT 220455Z AUTO 23010KT 10SM BKN110 09/08 A3011 RMK AO1
Loading
Personal Weather Stations






























Interactive Weather Map New forecast layout! Learn more

10-Day Weather Forecast

Advertisements
Track Severe Weather on mobile